Time;durP1;ratioP1;P1;durP2;ratioP2;P2;SDS_P1;SDS_P2;PMS_P1;PMS_P2;Temp;Humidity;BMP_temperature;BMP_pressure;BME280_temperature;BME280_humidity;BME280_pressure;Samples;Min_cycle;Max_cycle;Signal;HPM_P1;HPM_P2
2023/04/04 00:01:24;;;;;;;7.97;3.35;;;3.50;99.90;;;;;;4984483;28;20457;-81
2023/04/04 00:03:51;;;;;;;6.90;3.53;;;3.50;99.90;;;;;;4985986;28;20120;-82
2023/04/04 00:06:18;;;;;;;6.13;2.83;;;3.40;99.90;;;;;;4971092;28;20067;-82
2023/04/04 00:08:43;;;;;;;4.90;2.90;;;3.40;99.90;;;;;;5005268;28;20069;-81
2023/04/04 00:11:09;;;;;;;5.32;2.78;;;3.60;99.90;;;;;;4985705;28;20042;-82
2023/04/04 00:13:37;;;;;;;5.78;3.33;;;3.40;99.90;;;;;;4975697;28;20491;-82
2023/04/04 00:16:02;;;;;;;4.47;2.50;;;3.40;99.90;;;;;;4997891;28;20103;-81
2023/04/04 00:18:28;;;;;;;6.72;2.75;;;3.40;99.90;;;;;;4972525;28;20073;-82
2023/04/04 00:20:54;;;;;;;6.43;3.03;;;3.30;99.90;;;;;;5008013;28;20044;-82
2023/04/04 00:23:20;;;;;;;5.20;2.70;;;3.30;99.90;;;;;;4990410;28;20713;-81
2023/04/04 00:25:52;;;;;;;4.57;3.20;;;3.90;99.90;;;;;;4982286;28;20033;-81
2023/04/04 00:28:19;;;;;;;6.30;2.90;;;3.30;99.90;;;;;;4982557;28;20064;-81
2023/04/04 00:30:45;;;;;;;5.28;2.97;;;4.10;99.90;;;;;;4997708;28;20077;-81
2023/04/04 00:33:12;;;;;;;8.38;3.10;;;3.60;99.90;;;;;;4994346;28;20042;-81
2023/04/04 00:35:37;;;;;;;3.60;2.38;;;3.30;99.90;;;;;;4992105;28;20129;-81
2023/04/04 00:38:03;;;;;;;4.47;2.77;;;3.30;99.90;;;;;;5000516;28;20089;-81
2023/04/04 00:40:29;;;;;;;6.32;2.95;;;3.20;99.90;;;;;;4984846;28;20284;-81
2023/04/04 00:42:56;;;;;;;4.95;2.83;;;3.20;99.90;;;;;;4983306;28;20050;-81
2023/04/04 00:45:22;;;;;;;9.18;3.15;;;3.20;99.90;;;;;;4992659;28;20037;-81
2023/04/04 00:47:49;;;;;;;7.55;2.97;;;3.60;99.90;;;;;;4990431;28;20045;-82
2023/04/04 00:50:16;;;;;;;6.45;3.22;;;3.20;99.90;;;;;;4995823;28;20050;-82
2023/04/04 00:52:42;;;;;;;6.55;3.08;;;3.20;99.90;;;;;;4980002;28;20034;-82
2023/04/04 00:55:08;;;;;;;5.93;3.00;;;3.20;99.90;;;;;;5005150;28;20046;-82
2023/04/04 00:57:34;;;;;;;;;;;3.20;99.90;;;;;;4981937;28;20292;-82
2023/04/04 01:00:05;;;;;;;5.90;2.92;;;3.10;99.90;;;;;;4973356;28;19918;-82
2023/04/04 01:02:31;;;;;;;6.03;2.90;;;3.10;99.90;;;;;;4976680;28;20120;-82
2023/04/04 01:04:57;;;;;;;7.22;3.28;;;3.10;99.90;;;;;;4991094;28;20458;-82
2023/04/04 01:07:23;;;;;;;5.63;2.97;;;3.00;99.90;;;;;;5000709;28;20400;-82
2023/04/04 01:09:50;;;;;;;8.55;3.50;;;3.00;99.90;;;;;;4991041;28;20047;-82
2023/04/04 01:12:17;;;;;;;8.32;3.28;;;3.70;99.90;;;;;;4965892;28;20034;-83
2023/04/04 01:14:42;;;;;;;11.60;3.65;;;4.40;99.90;;;;;;4981928;28;20042;-83
2023/04/04 01:17:08;;;;;;;5.63;3.00;;;2.90;99.90;;;;;;4988759;28;20493;-83
2023/04/04 01:19:41;;;;;;;7.73;3.17;;;2.90;99.90;;;;;;4990570;28;20308;-82
2023/04/04 01:22:08;;;;;;;5.40;2.78;;;2.90;99.90;;;;;;4993195;28;20398;-82
2023/04/04 01:24:35;;;;;;;6.07;2.85;;;4.40;99.90;;;;;;4980028;28;20042;-82
2023/04/04 01:27:01;;;;;;;5.35;3.05;;;3.00;99.90;;;;;;4958025;28;20074;-82
2023/04/04 01:29:26;;;;;;;8.25;3.45;;;3.00;99.90;;;;;;5005005;28;20030;-82
2023/04/04 01:32:03;;;;;;;6.87;3.23;;;2.90;99.90;;;;;;4978254;28;20125;-82
2023/04/04 01:34:37;;;;;;;5.15;3.38;;;2.90;99.90;;;;;;4993993;28;20827;-83
2023/04/04 01:37:27;;;;;;;7.25;2.80;;;3.10;99.90;;;;;;5005006;28;20073;-83
2023/04/04 01:40:10;;;;;;;5.88;2.88;;;2.80;99.90;;;;;;4997681;28;20417;-83
2023/04/04 01:42:36;;;;;;;4.75;2.95;;;2.80;99.90;;;;;;4982481;28;20036;-83
2023/04/04 01:45:04;;;;;;;5.95;3.08;;;4.00;99.90;;;;;;4982578;28;20225;-83
2023/04/04 01:47:40;;;;;;;6.72;2.90;;;2.70;99.90;;;;;;4968185;28;20042;-83
2023/04/04 01:50:10;;;;;;;11.07;3.35;;;2.70;99.90;;;;;;5003942;28;20165;-83
2023/04/04 01:52:36;;;;;;;7.97;3.15;;;2.70;99.90;;;;;;4983625;28;20042;-83
2023/04/04 01:55:03;;;;;;;5.45;3.00;;;2.60;99.90;;;;;;4983565;28;20050;-83
2023/04/04 01:57:29;;;;;;;6.70;2.88;;;2.70;99.90;;;;;;4999430;28;20489;-83
2023/04/04 01:59:55;;;;;;;;;;;2.60;99.90;;;;;;4981324;28;20088;-83
2023/04/04 02:02:21;;;;;;;8.43;3.33;;;2.60;99.90;;;;;;4978678;28;20378;-83
2023/04/04 02:04:47;;;;;;;6.63;2.85;;;2.60;99.90;;;;;;4998335;28;20124;-83
2023/04/04 02:07:13;;;;;;;5.20;2.85;;;2.60;99.90;;;;;;4986084;28;20133;-83
2023/04/04 02:09:39;;;;;;;4.47;2.75;;;4.10;99.90;;;;;;4999446;28;20061;-83
2023/04/04 02:12:06;;;;;;;5.22;3.10;;;2.50;99.90;;;;;;4982626;28;20035;-83
2023/04/04 02:14:32;;;;;;;7.07;3.35;;;2.50;99.90;;;;;;4997358;28;20053;-83
2023/04/04 02:16:58;;;;;;;7.53;2.70;;;2.50;99.90;;;;;;4971790;28;20038;-83
2023/04/04 02:19:24;;;;;;;6.10;2.97;;;3.10;99.90;;;;;;4966101;28;20324;-83
2023/04/04 02:21:50;;;;;;;6.55;2.95;;;2.40;99.90;;;;;;4983779;28;20038;-83
2023/04/04 02:24:16;;;;;;;7.30;3.20;;;2.40;99.90;;;;;;4977957;28;20426;-83
2023/04/04 02:26:42;;;;;;;9.07;3.08;;;3.70;99.90;;;;;;4959356;28;20089;-82
2023/04/04 02:29:07;;;;;;;7.43;3.20;;;2.50;99.90;;;;;;4975809;28;20490;-83
2023/04/04 02:31:33;;;;;;;5.93;2.70;;;3.50;99.90;;;;;;5007035;28;20046;-83
2023/04/04 02:33:59;;;;;;;5.18;3.33;;;2.30;99.90;;;;;;4969082;28;20360;-83
2023/04/04 02:36:25;;;;;;;6.10;2.78;;;3.80;99.90;;;;;;4985054;28;20038;-83
2023/04/04 02:38:50;;;;;;;5.03;2.70;;;2.30;99.90;;;;;;4980136;28;20030;-82
2023/04/04 02:41:16;;;;;;;6.90;3.30;;;3.50;99.90;;;;;;4996439;28;20506;-81
2023/04/04 02:43:42;;;;;;;3.83;2.40;;;2.60;99.90;;;;;;4981946;28;20283;-82
2023/04/04 02:46:07;;;;;;;7.47;2.90;;;3.70;99.90;;;;;;4992489;28;20069;-83
2023/04/04 02:48:33;;;;;;;6.43;3.00;;;2.20;99.90;;;;;;4983158;28;20300;-83
2023/04/04 02:50:59;;;;;;;4.97;2.75;;;2.90;99.90;;;;;;4968559;28;20050;-83
2023/04/04 02:53:24;;;;;;;4.38;2.55;;;2.30;99.90;;;;;;4978079;28;20091;-83
2023/04/04 02:55:50;;;;;;;6.00;2.73;;;2.30;99.90;;;;;;5004945;28;20033;-83
2023/04/04 02:58:16;;;;;;;8.03;2.97;;;2.20;99.90;;;;;;4977097;28;20380;-83
2023/04/04 03:00:42;;;;;;;5.78;3.05;;;2.20;99.90;;;;;;4981580;28;20085;-83
2023/04/04 03:03:08;;;;;;;9.52;3.33;;;2.70;99.90;;;;;;4990725;28;20505;-82
2023/04/04 03:05:34;;;;;;;5.57;2.95;;;3.70;99.90;;;;;;4977280;28;20038;-82
2023/04/04 03:08:00;;;;;;;6.93;3.30;;;2.10;99.90;;;;;;4964682;28;20104;-83
2023/04/04 03:10:30;;;;;;;4.65;2.70;;;2.10;99.90;;;;;;4976375;28;20034;-83
2023/04/04 03:12:56;;;;;;;6.82;2.88;;;2.10;99.90;;;;;;4998431;28;20089;-83
2023/04/04 03:15:22;;;;;;;6.85;2.67;;;2.10;99.90;;;;;;4999951;28;20035;-82
2023/04/04 03:17:48;;;;;;;6.45;3.40;;;2.00;99.90;;;;;;5001648;28;20406;-83
2023/04/04 03:20:15;;;;;;;5.90;2.70;;;2.40;99.90;;;;;;4998176;28;20046;-83
2023/04/04 03:22:41;;;;;;;;;;;3.70;99.90;;;;;;4981057;28;20038;-82
2023/04/04 03:25:07;;;;;;;5.43;2.63;;;2.00;99.90;;;;;;4996967;28;19925;-82
2023/04/04 03:27:33;;;;;;;;;;;2.00;99.90;;;;;;4999511;28;20077;-83
2023/04/04 03:29:59;;;;;;;7.50;3.90;;;3.40;99.90;;;;;;4983592;28;19987;-83
2023/04/04 03:32:26;;;;;;;5.65;2.90;;;3.60;99.90;;;;;;4987199;28;20045;-82
2023/04/04 03:34:51;;;;;;;;;;;1.90;99.90;;;;;;4976688;28;20034;-83
2023/04/04 03:37:17;;;;;;;5.35;2.75;;;3.10;99.90;;;;;;4967069;28;19940;-83
2023/04/04 03:39:43;;;;;;;5.75;2.90;;;1.90;99.90;;;;;;4960758;28;20096;-83
2023/04/04 03:42:09;;;;;;;9.55;3.28;;;3.10;99.90;;;;;;4983007;28;20124;-83
2023/04/04 03:44:38;;;;;;;4.45;3.08;;;1.90;99.90;;;;;;4975079;28;20042;-83
2023/04/04 03:47:06;;;;;;;5.25;3.10;;;2.60;99.90;;;;;;4988089;28;20038;-83
2023/04/04 03:49:33;;;;;;;5.72;3.00;;;1.90;99.90;;;;;;4990141;28;20096;-83
2023/04/04 03:52:01;;;;;;;7.05;3.00;;;3.20;99.90;;;;;;4995218;28;20046;-83
2023/04/04 03:54:27;;;;;;;5.88;2.75;;;3.00;99.90;;;;;;4981294;28;20124;-82
2023/04/04 03:56:54;;;;;;;7.20;3.30;;;2.30;99.90;;;;;;5009430;28;20483;-83
2023/04/04 03:59:20;;;;;;;5.00;2.53;;;3.30;99.90;;;;;;5005975;28;20057;-83
2023/04/04 04:01:46;;;;;;;6.25;3.00;;;2.00;99.90;;;;;;4997466;28;20046;-83
2023/04/04 04:04:11;;;;;;;5.65;2.75;;;1.80;99.90;;;;;;4989030;28;20069;-83
2023/04/04 04:06:37;;;;;;;4.20;2.63;;;1.80;99.90;;;;;;4995320;28;20034;-83
2023/04/04 04:09:03;;;;;;;7.95;2.92;;;1.70;99.90;;;;;;4992254;28;20041;-83
2023/04/04 04:11:29;;;;;;;6.22;2.97;;;1.70;99.90;;;;;;4992722;28;20456;-83
2023/04/04 04:13:55;;;;;;;9.43;3.28;;;1.70;99.90;;;;;;4990294;28;20066;-83
2023/04/04 04:16:21;;;;;;;7.25;3.00;;;3.30;99.90;;;;;;4989360;28;20153;-84
2023/04/04 04:18:47;;;;;;;6.65;2.90;;;1.60;99.90;;;;;;4966738;28;20053;-84
2023/04/04 04:21:16;;;;;;;4.95;3.28;;;1.60;99.90;;;;;;4973744;28;20037;-84
2023/04/04 04:23:41;;;;;;;5.43;3.27;;;1.50;99.90;;;;;;4973222;28;20042;-84
2023/04/04 04:26:07;;;;;;;6.00;2.90;;;2.20;99.90;;;;;;4966658;28;20813;-83
2023/04/04 04:28:33;;;;;;;6.35;3.05;;;1.50;99.90;;;;;;4986510;28;20096;-90
2023/04/04 04:31:09;;;;;;;5.57;2.80;;;1.50;99.90;;;;;;4986642;28;20044;-89
2023/04/04 04:33:35;;;;;;;6.65;2.92;;;1.40;99.90;;;;;;4979514;28;20026;-80
2023/04/04 04:36:04;;;;;;;6.72;2.90;;;2.90;99.90;;;;;;4981855;28;20441;-81
2023/04/04 04:38:30;;;;;;;5.57;3.08;;;1.40;99.90;;;;;;4985980;28;20116;-80
2023/04/04 04:40:56;;;;;;;8.90;3.35;;;1.40;99.90;;;;;;4965971;28;20466;-81
2023/04/04 04:43:22;;;;;;;5.68;2.88;;;1.40;99.90;;;;;;4989495;28;20510;-81
2023/04/04 04:45:49;;;;;;;;;;;1.40;99.90;;;;;;4989715;28;20034;-81
2023/04/04 04:48:16;;;;;;;8.93;3.25;;;2.10;99.90;;;;;;4996204;28;20378;-82
2023/04/04 04:50:45;;;;;;;8.00;3.20;;;1.40;99.90;;;;;;5008277;28;20453;-82
2023/04/04 04:53:12;;;;;;;5.32;3.10;;;2.70;99.90;;;;;;5000741;28;20505;-81
2023/04/04 04:55:38;;;;;;;6.60;3.22;;;1.30;99.90;;;;;;4981821;28;20052;-82
2023/04/04 04:58:05;;;;;;;8.05;3.22;;;1.30;99.90;;;;;;5003099;28;20443;-83
2023/04/04 05:00:31;;;;;;;4.68;2.75;;;1.30;99.90;;;;;;4999813;28;20138;-80
2023/04/04 05:02:59;;;;;;;5.32;3.00;;;1.30;99.90;;;;;;5000517;28;20073;-82
2023/04/04 05:05:25;;;;;;;5.43;3.22;;;1.70;99.90;;;;;;5000012;28;20038;-80
2023/04/04 05:07:51;;;;;;;8.02;2.97;;;1.30;99.90;;;;;;5009029;28;20045;-81
2023/04/04 05:10:17;;;;;;;4.63;2.83;;;1.30;99.90;;;;;;4974320;28;20042;-81
2023/04/04 05:12:43;;;;;;;5.68;2.85;;;2.20;99.90;;;;;;5003792;28;20057;-81
2023/04/04 05:15:10;;;;;;;;;;;1.30;99.90;;;;;;5007905;28;20045;-81
2023/04/04 05:17:35;;;;;;;6.65;3.20;;;1.30;99.90;;;;;;4993753;28;19932;-81
2023/04/04 05:20:01;;;;;;;6.23;2.60;;;2.70;99.90;;;;;;4977975;28;20034;-81
2023/04/04 05:22:27;;;;;;;6.07;2.90;;;1.40;99.90;;;;;;4993259;28;20285;-81
2023/04/04 05:24:53;;;;;;;5.38;3.00;;;1.90;99.90;;;;;;4993475;28;20046;-82
2023/04/04 05:27:18;;;;;;;7.57;3.00;;;1.40;99.90;;;;;;4997511;28;20504;-82
2023/04/04 05:29:45;;;;;;;10.70;2.90;;;1.10;99.90;;;;;;4974040;28;20122;-82
2023/04/04 05:32:11;;;;;;;5.85;2.60;;;1.50;99.90;;;;;;4989977;28;20293;-82
2023/04/04 05:34:37;;;;;;;5.40;3.07;;;2.20;99.90;;;;;;4976289;28;20045;-82
2023/04/04 05:37:02;;;;;;;5.50;2.50;;;1.60;99.90;;;;;;4981449;28;20369;-82
2023/04/04 05:39:29;;;;;;;7.35;2.80;;;1.70;99.90;;;;;;4989787;28;20305;-82
2023/04/04 05:41:55;;;;;;;4.30;2.60;;;1.70;99.90;;;;;;4996029;28;20108;-82
2023/04/04 05:44:21;;;;;;;7.15;3.30;;;2.40;99.90;;;;;;5000499;28;20038;-81
2023/04/04 05:46:46;;;;;;;4.45;2.70;;;1.80;99.90;;;;;;4973552;28;20084;-82
2023/04/04 05:49:12;;;;;;;4.60;3.03;;;1.90;99.90;;;;;;4957264;28;20124;-81
2023/04/04 05:51:38;;;;;;;5.80;3.07;;;1.90;99.90;;;;;;4990676;28;20048;-81
2023/04/04 05:54:06;;;;;;;5.85;2.75;;;1.90;99.90;;;;;;4993385;28;20566;-81
2023/04/04 05:56:32;;;;;;;6.68;3.22;;;2.80;99.90;;;;;;4981934;28;20050;-81
2023/04/04 05:58:58;;;;;;;;;;;1.90;99.90;;;;;;4990356;28;20038;-82
2023/04/04 06:01:24;;;;;;;6.75;3.20;;;1.90;99.90;;;;;;4973212;28;19917;-82
2023/04/04 06:03:50;;;;;;;6.68;2.97;;;1.90;99.90;;;;;;4993294;28;20077;-82
2023/04/04 06:06:16;;;;;;;9.07;3.30;;;1.90;99.90;;;;;;4992561;28;20050;-81
2023/04/04 06:08:42;;;;;;;8.30;3.20;;;1.90;99.90;;;;;;5009321;28;20339;-81
2023/04/04 06:11:08;;;;;;;3.92;2.53;;;1.90;99.90;;;;;;5009472;28;20124;-82
2023/04/04 06:13:34;;;;;;;5.67;2.80;;;2.00;99.90;;;;;;4993421;28;20076;-82
2023/04/04 06:16:00;;;;;;;8.32;3.03;;;2.80;99.90;;;;;;4992903;28;20281;-81
2023/04/04 06:18:25;;;;;;;7.20;3.17;;;2.10;99.90;;;;;;4992288;28;20041;-82
2023/04/04 06:20:51;;;;;;;5.18;2.50;;;2.50;99.90;;;;;;4992581;28;20041;-82
2023/04/04 06:23:17;;;;;;;6.83;2.90;;;2.40;99.90;;;;;;4989596;28;20034;-82
2023/04/04 06:25:42;;;;;;;5.60;2.87;;;3.30;99.90;;;;;;5007571;28;20297;-82
2023/04/04 06:28:09;;;;;;;4.28;2.38;;;2.70;99.90;;;;;;5009429;28;20041;-82
2023/04/04 06:30:36;;;;;;;4.32;2.25;;;3.50;99.90;;;;;;5009148;28;20497;-82
2023/04/04 06:33:05;;;;;;;5.57;2.70;;;3.10;99.90;;;;;;5001006;28;20041;-82
2023/04/04 06:35:31;;;;;;;7.18;2.58;;;4.00;99.90;;;;;;4991574;28;20073;-82
2023/04/04 06:37:58;;;;;;;4.70;2.90;;;3.40;99.90;;;;;;5005950;28;20387;-82
2023/04/04 06:40:23;;;;;;;5.40;2.78;;;3.50;99.90;;;;;;4988764;28;20407;-82
2023/04/04 06:43:00;;;;;;;6.43;2.78;;;3.60;99.90;;;;;;4973131;28;20038;-82
2023/04/04 06:45:27;;;;;;;3.65;2.38;;;3.70;99.90;;;;;;4977537;28;20038;-82
2023/04/04 06:47:56;;;;;;;6.00;2.25;;;3.70;99.90;;;;;;4989076;28;20096;-82
2023/04/04 06:50:22;;;;;;;3.65;2.00;;;3.90;99.90;;;;;;4988769;28;20133;-82
2023/04/04 06:52:48;;;;;;;5.22;2.50;;;4.10;99.90;;;;;;4973067;28;20440;-82
2023/04/04 06:55:14;;;;;;;;;;;4.10;99.90;;;;;;4990339;28;20125;-82
2023/04/04 06:57:40;;;;;;;5.93;2.83;;;4.30;99.90;;;;;;4985228;28;19992;-82
2023/04/04 07:00:08;;;;;;;4.35;2.33;;;4.40;99.90;;;;;;4984515;28;20045;-82
2023/04/04 07:02:33;;;;;;;4.93;2.42;;;4.50;99.90;;;;;;4972438;28;20133;-82
2023/04/04 07:04:59;;;;;;;6.10;2.63;;;4.70;99.90;;;;;;4989040;28;20550;-82
2023/04/04 07:07:25;;;;;;;4.82;2.30;;;5.10;99.90;;;;;;4956396;28;20038;-82
2023/04/04 07:09:51;;;;;;;7.67;3.00;;;5.50;99.90;;;;;;5003205;28;20121;-82
2023/04/04 07:12:17;;;;;;;5.47;2.20;;;6.00;99.90;;;;;;4991846;28;20383;-83
2023/04/04 07:14:42;;;;;;;3.85;2.28;;;6.60;99.90;;;;;;4979678;28;20289;-83
2023/04/04 07:17:08;;;;;;;5.80;1.80;;;6.90;99.90;;;;;;4979026;28;20037;-82
2023/04/04 07:19:34;;;;;;;4.40;1.90;;;7.40;99.90;;;;;;4994458;28;20037;-82
2023/04/04 07:21:59;;;;;;;4.65;2.53;;;8.00;99.90;;;;;;4989049;28;20121;-83
2023/04/04 07:24:25;;;;;;;5.60;2.00;;;8.40;99.90;;;;;;4956246;28;20348;-83
2023/04/04 07:26:51;;;;;;;6.40;2.23;;;8.50;99.90;;;;;;4975446;28;20427;-83
2023/04/04 07:29:16;;;;;;;4.00;2.08;;;8.70;99.90;;;;;;4972482;28;20038;-81
2023/04/04 07:31:42;;;;;;;3.35;1.52;;;8.70;99.90;;;;;;5004523;28;20502;-83
2023/04/04 07:34:08;;;;;;;5.13;1.90;;;9.00;99.90;;;;;;4992494;28;20034;-82
2023/04/04 07:36:34;;;;;;;3.87;1.90;;;9.20;99.90;;;;;;4991923;28;20034;-82
2023/04/04 07:38:59;;;;;;;2.38;1.48;;;9.30;99.90;;;;;;4993512;28;20282;-83
2023/04/04 07:41:26;;;;;;;4.70;1.47;;;9.70;99.90;;;;;;4972385;28;20450;-82
2023/04/04 07:43:51;;;;;;;4.95;1.77;;;9.50;99.90;;;;;;4956433;28;20289;-82
2023/04/04 07:46:19;;;;;;;3.70;1.75;;;9.60;99.90;;;;;;4972351;28;20042;-83
2023/04/04 07:48:44;;;;;;;3.78;1.40;;;9.90;99.90;;;;;;4970980;28;20034;-81
2023/04/04 07:51:10;;;;;;;3.20;1.48;;;10.00;99.90;;;;;;4985996;28;20144;-81
2023/04/04 07:53:36;;;;;;;2.45;1.45;;;10.10;99.00;;;;;;4980640;28;20121;-82
2023/04/04 07:56:10;;;;;;;3.83;1.30;;;10.20;98.90;;;;;;4956483;28;20442;-83
2023/04/04 07:58:39;;;;;;;5.85;1.25;;;10.40;96.70;;;;;;4997996;28;20433;-83
2023/04/04 08:01:05;;;;;;;3.17;1.40;;;10.50;98.20;;;;;;5008405;28;20050;-83
2023/04/04 08:03:31;;;;;;;7.95;2.38;;;10.40;96.70;;;;;;4992082;28;20038;-83
2023/04/04 08:05:56;;;;;;;4.18;1.58;;;10.60;96.10;;;;;;4986736;28;20319;-83
2023/04/04 08:08:22;;;;;;;3.00;1.17;;;10.30;95.60;;;;;;4988723;28;20034;-83
2023/04/04 08:10:48;;;;;;;2.65;1.17;;;10.80;95.90;;;;;;4994885;28;20140;-83
2023/04/04 08:13:14;;;;;;;4.95;1.63;;;10.90;95.50;;;;;;4992494;28;20128;-83
2023/04/04 08:15:40;;;;;;;3.75;1.38;;;10.90;95.30;;;;;;4991859;28;20042;-83
2023/04/04 08:18:06;;;;;;;4.80;1.50;;;11.20;95.20;;;;;;4975771;28;20269;-83
2023/04/04 08:20:32;;;;;;;4.90;1.30;;;11.30;95.70;;;;;;4975877;28;20046;-83
2023/04/04 08:22:57;;;;;;;2.25;1.40;;;11.60;94.50;;;;;;4960002;28;20038;-82
2023/04/04 08:25:24;;;;;;;4.75;1.40;;;11.80;94.20;;;;;;4975403;28;20049;-82
2023/04/04 08:27:49;;;;;;;2.45;1.10;;;11.80;94.30;;;;;;4959596;28;20037;-83
2023/04/04 08:30:16;;;;;;;6.07;2.30;;;11.90;94.20;;;;;;4992624;28;20413;-82
2023/04/04 08:32:44;;;;;;;5.07;1.60;;;12.10;93.50;;;;;;4980217;28;20038;-83
2023/04/04 08:35:11;;;;;;;3.33;1.13;;;12.00;93.20;;;;;;5005895;28;20061;-83
2023/04/04 08:37:46;;;;;;;2.92;1.42;;;12.20;93.50;;;;;;4992627;28;20085;-83
2023/04/04 08:40:12;;;;;;;4.97;1.80;;;12.60;93.10;;;;;;5011251;28;20034;-83
2023/04/04 08:42:40;;;;;;;3.53;1.23;;;13.00;93.60;;;;;;4994917;28;20368;-81
2023/04/04 08:45:10;;;;;;;5.13;1.50;;;13.00;92.30;;;;;;5011404;28;20095;-81
2023/04/04 08:47:37;;;;;;;4.22;1.60;;;13.30;92.20;;;;;;4977105;28;20591;-81
2023/04/04 08:50:07;;;;;;;4.40;1.58;;;13.50;92.20;;;;;;4981746;28;20052;-81
2023/04/04 08:52:34;;;;;;;4.40;1.52;;;13.30;91.00;;;;;;5011032;28;20761;-81
2023/04/04 08:55:04;;;;;;;3.90;1.50;;;13.00;91.80;;;;;;5011265;28;20128;-81
2023/04/04 08:57:30;;;;;;;3.97;1.48;;;13.20;90.70;;;;;;4987926;28;20575;-81
2023/04/04 08:59:57;;;;;;;2.83;1.20;;;13.80;92.00;;;;;;4990045;28;20041;-81
2023/04/04 09:02:28;;;;;;;2.55;1.40;;;14.30;91.20;;;;;;4998356;28;20039;-81
2023/04/04 09:04:55;;;;;;;3.30;1.40;;;14.50;91.40;;;;;;4979681;28;20034;-81
2023/04/04 09:07:22;;;;;;;3.22;0.90;;;14.40;90.80;;;;;;4977328;28;20073;-81
2023/04/04 09:09:49;;;;;;;2.50;1.05;;;14.20;87.70;;;;;;4990593;28;20104;-81
2023/04/04 09:12:16;;;;;;;4.10;1.00;;;14.40;90.00;;;;;;4991279;28;20038;-81
2023/04/04 09:14:42;;;;;;;;;;;13.90;88.30;;;;;;4975215;28;20046;-81
2023/04/04 09:17:09;;;;;;;2.75;1.33;;;14.10;88.80;;;;;;4980442;28;19921;-81
2023/04/04 09:19:36;;;;;;;4.07;1.25;;;14.60;88.60;;;;;;4993914;28;20115;-82
2023/04/04 09:22:05;;;;;;;4.07;1.27;;;14.80;88.50;;;;;;5009940;28;20403;-82
2023/04/04 09:24:39;;;;;;;6.72;2.22;;;15.10;86.60;;;;;;5010129;28;20529;-82
2023/04/04 09:27:10;;;;;;;4.75;1.25;;;15.10;86.90;;;;;;5010418;28;20049;-82
2023/04/04 09:29:40;;;;;;;3.95;1.40;;;15.60;87.30;;;;;;4984321;28;20039;-82
2023/04/04 09:32:12;;;;;;;7.60;2.10;;;15.30;84.40;;;;;;4994410;28;20030;-82
2023/04/04 09:34:39;;;;;;;5.28;1.15;;;15.50;86.50;;;;;;5007879;28;20404;-82
2023/04/04 09:37:05;;;;;;;4.90;1.38;;;15.60;85.80;;;;;;5010259;28;20034;-82
2023/04/04 09:39:33;;;;;;;2.42;1.10;;;15.40;85.80;;;;;;5010028;28;20063;-82
2023/04/04 09:42:00;;;;;;;3.92;1.08;;;15.20;83.90;;;;;;4994052;28;20513;-81
2023/04/04 09:44:32;;;;;;;4.78;1.35;;;15.50;86.50;;;;;;4994281;28;20040;-81
2023/04/04 09:47:22;;;;;;;3.28;1.30;;;15.40;85.60;;;;;;5009891;28;20038;-82
2023/04/04 09:49:49;;;;;;;4.20;1.42;;;14.80;83.70;;;;;;4993585;28;20304;-82
2023/04/04 09:52:22;;;;;;;2.47;0.98;;;15.40;83.50;;;;;;4992631;28;20128;-82
2023/04/04 09:55:01;;;;;;;2.75;1.20;;;15.50;83.40;;;;;;5009649;28;20041;-82
2023/04/04 09:57:28;;;;;;;4.93;0.98;;;15.20;84.00;;;;;;5010114;28;20481;-82
2023/04/04 09:59:59;;;;;;;4.75;1.10;;;15.30;84.10;;;;;;4988896;28;20187;-82
2023/04/04 10:02:25;;;;;;;4.30;1.02;;;15.20;81.80;;;;;;5004308;28;20042;-82
2023/04/04 10:04:52;;;;;;;;;;;15.30;82.90;;;;;;4957715;28;20180;-82
2023/04/04 10:07:17;;;;;;;2.95;0.90;;;15.60;82.60;;;;;;4974050;28;19929;-82
2023/04/04 10:09:47;;;;;;;2.83;1.20;;;15.60;81.50;;;;;;4985666;28;20038;-82
2023/04/04 10:12:13;;;;;;;3.38;1.40;;;16.60;81.00;;;;;;4973531;28;20121;-82
2023/04/04 10:14:39;;;;;;;5.03;1.20;;;16.90;80.80;;;;;;4989700;28;20121;-82
2023/04/04 10:17:08;;;;;;;4.05;1.10;;;17.20;80.00;;;;;;4990563;28;20494;-82
2023/04/04 10:19:36;;;;;;;6.22;1.40;;;17.00;81.10;;;;;;4990477;28;20081;-82
2023/04/04 10:22:03;;;;;;;3.65;1.50;;;17.20;80.90;;;;;;5009917;28;20042;-82
2023/04/04 10:24:29;;;;;;;3.60;1.13;;;16.10;79.50;;;;;;4988330;28;20053;-82
2023/04/04 10:26:55;;;;;;;6.40;1.40;;;15.60;79.80;;;;;;5008813;28;20406;-82
2023/04/04 10:29:21;;;;;;;4.20;1.35;;;15.70;82.50;;;;;;4992754;28;20084;-82
2023/04/04 10:31:52;;;;;;;5.22;1.48;;;15.90;82.10;;;;;;5008688;28;20038;-82
2023/04/04 10:34:38;;;;;;;5.65;1.50;;;15.90;81.90;;;;;;5009587;28;20120;-82
2023/04/04 10:37:11;;;;;;;3.03;1.10;;;16.10;80.40;;;;;;5002170;28;20125;-82
2023/04/04 10:39:48;;;;;;;2.58;1.48;;;16.50;82.20;;;;;;4977396;28;20394;-82
2023/04/04 10:42:17;;;;;;;4.05;1.70;;;16.60;80.80;;;;;;5004519;28;20042;-82
2023/04/04 10:44:44;;;;;;;2.45;1.30;;;16.90;80.30;;;;;;5006633;28;20434;-80
2023/04/04 10:47:38;;;;;;;4.60;1.67;;;17.20;81.10;;;;;;5003069;28;20482;-82
2023/04/04 10:50:09;;;;;;;4.40;1.30;;;17.00;82.30;;;;;;4986502;28;20125;-80
2023/04/04 10:52:37;;;;;;;5.05;1.40;;;16.70;81.40;;;;;;4989260;28;20051;-80
2023/04/04 10:55:12;;;;;;;4.50;1.58;;;16.30;82.40;;;;;;4994874;28;20053;-81
2023/04/04 10:57:51;;;;;;;6.22;1.63;;;16.10;81.60;;;;;;4989178;28;20041;-80
2023/04/04 11:00:19;;;;;;;5.70;1.52;;;16.40;81.30;;;;;;4992356;28;20048;-80
2023/04/04 11:02:59;;;;;;;3.28;1.45;;;16.50;80.80;;;;;;5004205;28;20052;-80
2023/04/04 11:05:45;;;;;;;3.20;1.52;;;16.40;80.10;;;;;;4997465;28;20084;-81
2023/04/04 11:08:15;;;;;;;3.70;1.40;;;16.10;80.60;;;;;;5009080;28;20069;-81
2023/04/04 11:10:42;;;;;;;3.22;1.50;;;16.60;80.90;;;;;;4991201;28;20034;-81
2023/04/04 11:13:12;;;;;;;4.55;1.60;;;17.00;80.90;;;;;;4997900;28;20038;-81
2023/04/04 11:15:56;;;;;;;4.30;1.35;;;16.00;81.10;;;;;;4992150;28;20042;-81
2023/04/04 11:18:42;;;;;;;3.78;1.65;;;16.20;80.40;;;;;;5004337;28;20096;-81
2023/04/04 11:21:10;;;;;;;4.40;1.30;;;16.50;80.00;;;;;;5005148;28;20078;-81
2023/04/04 11:23:48;;;;;;;3.83;1.73;;;16.60;81.60;;;;;;4989325;28;20034;-81
2023/04/04 11:26:29;;;;;;;5.43;1.55;;;16.50;79.70;;;;;;4991268;28;20038;-80
2023/04/04 11:28:59;;;;;;;2.47;1.40;;;16.60;81.40;;;;;;5008920;28;20046;-80
2023/04/04 11:31:27;;;;;;;5.47;1.50;;;17.30;80.40;;;;;;4992546;28;20037;-81
2023/04/04 11:34:11;;;;;;;3.72;1.58;;;17.70;79.10;;;;;;5004608;28;20038;-80
2023/04/04 11:36:36;;;;;;;5.78;1.73;;;17.70;78.40;;;;;;4977264;28;20047;-80
2023/04/04 11:39:27;;;;;;;5.00;1.98;;;17.30;78.00;;;;;;5008772;28;20038;-80
2023/04/04 11:42:07;;;;;;;3.00;1.35;;;16.90;80.30;;;;;;4989108;28;20038;-80
2023/04/04 11:44:39;;;;;;;2.90;1.42;;;16.70;78.00;;;;;;4992993;28;20037;-80
2023/04/04 11:47:09;;;;;;;3.40;1.10;;;16.40;79.50;;;;;;5012158;28;20037;-80
2023/04/04 11:49:40;;;;;;;4.88;1.63;;;16.70;78.90;;;;;;5004695;28;20045;-81
2023/04/04 11:52:11;;;;;;;4.57;1.48;;;16.50;79.30;;;;;;5007191;28;20533;-80
2023/04/04 11:54:37;;;;;;;3.33;1.50;;;16.90;76.40;;;;;;5012511;28;20394;-80
2023/04/04 11:57:10;;;;;;;5.22;1.30;;;17.30;76.50;;;;;;4995622;28;20029;-81
2023/04/04 11:59:39;;;;;;;4.07;1.25;;;17.40;77.20;;;;;;4997432;28;20085;-80
2023/04/04 12:02:05;;;;;;;2.13;1.30;;;17.20;77.90;;;;;;5004209;28;20089;-81
2023/04/04 12:04:31;;;;;;;2.05;1.25;;;17.20;76.60;;;;;;4976280;28;20422;-81
2023/04/04 12:06:57;;;;;;;5.25;1.33;;;17.40;76.40;;;;;;4998139;28;20041;-80
2023/04/04 12:09:25;;;;;;;4.00;1.80;;;17.40;76.60;;;;;;5004543;28;20105;-80
2023/04/04 12:11:51;;;;;;;5.63;1.45;;;16.70;77.20;;;;;;4998865;28;20076;-80
2023/04/04 12:14:18;;;;;;;;;;;16.90;78.00;;;;;;4997508;28;20045;-81
2023/04/04 12:16:47;;;;;;;2.67;1.13;;;16.10;75.90;;;;;;4993686;28;20315;-81
2023/04/04 12:19:13;;;;;;;2.72;1.50;;;15.90;79.10;;;;;;5009440;28;20366;-80
2023/04/04 12:21:39;;;;;;;3.80;1.60;;;15.60;77.60;;;;;;4992023;28;20117;-80
2023/04/04 12:24:07;;;;;;;5.53;1.52;;;15.20;76.40;;;;;;4998897;28;20450;-80
2023/04/04 12:26:37;;;;;;;3.55;1.17;;;15.40;78.30;;;;;;4998160;28;20151;-80
2023/04/04 12:29:04;;;;;;;2.38;1.20;;;16.20;78.60;;;;;;5006207;28;20035;-80
2023/04/04 12:31:31;;;;;;;2.80;1.20;;;16.50;78.00;;;;;;4977513;28;20065;-80
2023/04/04 12:33:58;;;;;;;4.18;1.52;;;16.50;76.60;;;;;;4975313;28;20046;-81
2023/04/04 12:36:25;;;;;;;2.47;1.10;;;16.70;76.00;;;;;;4982986;28;20044;-80
2023/04/04 12:39:01;;;;;;;3.85;1.77;;;16.30;76.30;;;;;;5008852;28;20371;-80
2023/04/04 12:41:27;;;;;;;4.33;1.57;;;16.30;74.40;;;;;;4996748;28;20038;-80
2023/04/04 12:44:04;;;;;;;3.95;1.50;;;16.80;75.30;;;;;;5001818;28;20060;-79
2023/04/04 12:46:40;;;;;;;4.57;1.60;;;17.10;75.20;;;;;;4995058;28;20042;-80
2023/04/04 12:49:07;;;;;;;2.80;1.63;;;17.10;76.20;;;;;;5008592;28;20490;-80
2023/04/04 12:51:34;;;;;;;5.75;1.40;;;16.70;76.30;;;;;;4994539;28;20050;-80
2023/04/04 12:54:00;;;;;;;3.22;1.67;;;17.00;76.30;;;;;;4994494;28;20522;-80
2023/04/04 12:56:27;;;;;;;3.38;1.65;;;16.80;75.20;;;;;;4970066;28;20041;-80
2023/04/04 12:59:02;;;;;;;2.88;1.25;;;16.40;77.70;;;;;;5005193;28;20057;-80